Overview Statistics Trail Chart Weather Telemetry Raw packets
 

This is the latest recevied weather packets stored in our database for station/object K5BOU. If no packets are shown the sender has not sent any weather packets the latest 10 day(s).

<< 95 96 97 98 99 100 101 >>
Time Temp. Humidity Pressure Rain* Wind** Luminosity Snow
1787954879 25° C 99% 1012.8 hPa 0 mm - 62 W/m² -
1787954575 24.44° C 99% 1013.1 hPa 0 mm - 68 W/m² -
1787954268 25° C 99% 1012.6 hPa 0 mm - 96 W/m² -
1787953963 25° C 99% 1012.7 hPa 0 mm - 97 W/m² -
1787953661 24.44° C 99% 1012.5 hPa 0 mm - 102 W/m² -
1787953356 24.44° C 99% 1012.2 hPa 1.27 mm - 93 W/m² -
1787953055 24.44° C 99% 1012.4 hPa 1.27 mm - 77 W/m² -
1787952754 24.44° C 99% 1012.8 hPa 1.78 mm - 64 W/m² -
1787952449 24.44° C 99% 1013.3 hPa 3.05 mm - 51 W/m² -
1787952146 24.44° C 99% 1013.7 hPa 3.05 mm - 44 W/m² -
1787951844 24.44° C 98% 1014.5 hPa 6.1 mm - 37 W/m² -
1787951540 25.56° C 97% 1014 hPa 10.67 mm - 38 W/m² -
1787951236 26.67° C 94% 1014.3 hPa 4.83 mm - 43 W/m² -
1787950931 26.11° C 94% 1014.1 hPa 0 mm - 38 W/m² -
1787950627 27.22° C 89% 1013.8 hPa 0 mm - 47 W/m² -
1787950323 27.78° C 83% 1013.3 hPa 0 mm - 66 W/m² -
1787950018 28.89° C 78% 1013.5 hPa 0 mm - 97 W/m² -
1787949714 28.89° C 75% 1013.3 hPa 0 mm - 90 W/m² -
1787949413 29.44° C 77% 1012.9 hPa 0 mm - 157 W/m² -
1787949108 31.67° C 73% 1013.1 hPa 0 mm - 286 W/m² -
1787948805 32.78° C 71% 1013 hPa 0 mm - 246 W/m² -
1787948504 33.89° C 68% 1013.2 hPa 0 mm - 330 W/m² -
1787948200 37.22° C 59% 1013.2 hPa 0 mm - 280 W/m² -
1787947898 38.33° C 56% 1012.8 hPa 0 mm - 821 W/m² -
1787947593 37.78° C 54% 1012.6 hPa 0 mm - 816 W/m² -

* Rain latest hour (hover to see other rain measurements)
** Current wind speed in m/s (hover to see current wind gust speed)